Ruthven, Iowa
Current Conditions -  °F | °C
As of 6:53 PM on Wednesday 22 Oct 2014 (Local Time) from KSPW Reporting Station
Broken Clouds Broken Clouds  
Wind Chill: 63°   Ceiling: 6500
Heat Index: 63°   Visibility: 10mi
Dew Point: 48°   Wind: 16mph
Humidity: 58%   Direction: 150°SSE
Pressure: 29.99"   Gusts: NA
Location:  43.13°N, 94.9°W
Report Text: KSPW 222353Z AUTO 15014KT 10SM BKN065 BKN080 17/09 A2999 RMK AO2 SLP158 T01720089 10211 20172 55001 TSNO
Loading
Personal Weather Stations






























Interactive Weather Map
Tropical Storm Tracking
New forecast layout! Learn more

10-Day Weather Forecast

Advertisements
Track Severe Weather on mobile